sensor_id;sensor_type;location;lat;lon;timestamp;temperature;humidity
7900;DHT22;3995;50.856;4.404;2022-08-11T00:01:11;27.10;40.70
7900;DHT22;3995;50.856;4.404;2022-08-11T00:03:45;27.00;40.60
7900;DHT22;3995;50.856;4.404;2022-08-11T00:06:15;27.00;40.70
7900;DHT22;3995;50.856;4.404;2022-08-11T00:08:49;27.00;40.60
7900;DHT22;3995;50.856;4.404;2022-08-11T00:11:19;27.00;40.70
7900;DHT22;3995;50.856;4.404;2022-08-11T00:13:48;27.00;41.00
7900;DHT22;3995;50.856;4.404;2022-08-11T00:16:18;27.00;41.10
7900;DHT22;3995;50.856;4.404;2022-08-11T00:18:49;27.00;41.00
7900;DHT22;3995;50.856;4.404;2022-08-11T00:21:17;26.90;41.00
7900;DHT22;3995;50.856;4.404;2022-08-11T00:23:46;27.00;41.20
7900;DHT22;3995;50.856;4.404;2022-08-11T00:26:21;26.90;41.70
7900;DHT22;3995;50.856;4.404;2022-08-11T00:28:48;26.90;41.00
7900;DHT22;3995;50.856;4.404;2022-08-11T00:31:25;26.90;41.10
7900;DHT22;3995;50.856;4.404;2022-08-11T00:33:53;26.90;41.10
7900;DHT22;3995;50.856;4.404;2022-08-11T00:36:27;26.90;41.10
7900;DHT22;3995;50.856;4.404;2022-08-11T00:39:03;26.90;40.80
7900;DHT22;3995;50.856;4.404;2022-08-11T00:41:38;26.90;40.80
7900;DHT22;3995;50.856;4.404;2022-08-11T00:44:24;26.90;41.20
7900;DHT22;3995;50.856;4.404;2022-08-11T00:47:08;26.90;41.10
7900;DHT22;3995;50.856;4.404;2022-08-11T00:49:47;26.90;41.20
7900;DHT22;3995;50.856;4.404;2022-08-11T00:52:38;26.90;41.20
7900;DHT22;3995;50.856;4.404;2022-08-11T00:55:52;26.80;41.30
7900;DHT22;3995;50.856;4.404;2022-08-11T01:01:49;26.80;41.20
7900;DHT22;3995;50.856;4.404;2022-08-11T01:04:55;26.80;42.20
7900;DHT22;3995;50.856;4.404;2022-08-11T01:10:53;26.70;41.50
7900;DHT22;3995;50.856;4.404;2022-08-11T01:13:43;26.70;41.40
7900;DHT22;3995;50.856;4.404;2022-08-11T01:16:48;26.60;41.50
7900;DHT22;3995;50.856;4.404;2022-08-11T01:19:50;26.70;41.40
7900;DHT22;3995;50.856;4.404;2022-08-11T01:25:47;26.60;41.50
7900;DHT22;3995;50.856;4.404;2022-08-11T01:28:43;26.60;41.60
7900;DHT22;3995;50.856;4.404;2022-08-11T01:31:54;26.60;41.60
7900;DHT22;3995;50.856;4.404;2022-08-11T01:37:51;26.60;41.60
7900;DHT22;3995;50.856;4.404;2022-08-11T01:40:39;26.60;41.70
7900;DHT22;3995;50.856;4.404;2022-08-11T01:46:43;26.60;41.70
7900;DHT22;3995;50.856;4.404;2022-08-11T01:49:20;26.40;41.80
7900;DHT22;3995;50.856;4.404;2022-08-11T01:52:04;26.50;41.80
7900;DHT22;3995;50.856;4.404;2022-08-11T01:54:41;26.50;41.70
7900;DHT22;3995;50.856;4.404;2022-08-11T01:57:20;26.50;41.60
7900;DHT22;3995;50.856;4.404;2022-08-11T01:59:55;26.50;41.70
7900;DHT22;3995;50.856;4.404;2022-08-11T02:02:36;26.50;41.80
7900;DHT22;3995;50.856;4.404;2022-08-11T02:05:44;26.40;41.40
7900;DHT22;3995;50.856;4.404;2022-08-11T02:08:22;26.50;41.70
7900;DHT22;3995;50.856;4.404;2022-08-11T02:11:04;26.40;41.80
7900;DHT22;3995;50.856;4.404;2022-08-11T02:13:56;26.40;42.00
7900;DHT22;3995;50.856;4.404;2022-08-11T02:16:32;26.40;42.00
7900;DHT22;3995;50.856;4.404;2022-08-11T02:19:10;26.40;42.00
7900;DHT22;3995;50.856;4.404;2022-08-11T02:22:02;26.40;42.00
7900;DHT22;3995;50.856;4.404;2022-08-11T02:24:54;26.40;42.10
7900;DHT22;3995;50.856;4.404;2022-08-11T02:27:35;26.30;42.10
7900;DHT22;3995;50.856;4.404;2022-08-11T02:30:07;26.30;41.80
7900;DHT22;3995;50.856;4.404;2022-08-11T02:32:44;26.30;42.00
7900;DHT22;3995;50.856;4.404;2022-08-11T02:35:37;26.30;41.90
7900;DHT22;3995;50.856;4.404;2022-08-11T02:38:18;26.20;42.00
7900;DHT22;3995;50.856;4.404;2022-08-11T02:40:56;26.20;42.00
7900;DHT22;3995;50.856;4.404;2022-08-11T02:43:40;26.20;42.00
7900;DHT22;3995;50.856;4.404;2022-08-11T02:46:19;26.30;42.10
7900;DHT22;3995;50.856;4.404;2022-08-11T02:48:55;26.20;42.10
7900;DHT22;3995;50.856;4.404;2022-08-11T02:51:56;26.20;42.20
7900;DHT22;3995;50.856;4.404;2022-08-11T02:54:31;26.20;42.10
7900;DHT22;3995;50.856;4.404;2022-08-11T02:57:03;26.10;42.30
7900;DHT22;3995;50.856;4.404;2022-08-11T02:59:42;26.10;42.40
7900;DHT22;3995;50.856;4.404;2022-08-11T03:02:28;26.10;42.40
7900;DHT22;3995;50.856;4.404;2022-08-11T03:05:06;26.10;43.00
7900;DHT22;3995;50.856;4.404;2022-08-11T03:07:47;26.10;42.50
7900;DHT22;3995;50.856;4.404;2022-08-11T03:10:20;26.10;42.50
7900;DHT22;3995;50.856;4.404;2022-08-11T03:12:52;26.00;42.50
7900;DHT22;3995;50.856;4.404;2022-08-11T03:15:47;26.10;42.50
7900;DHT22;3995;50.856;4.404;2022-08-11T03:18:33;26.00;42.50
7900;DHT22;3995;50.856;4.404;2022-08-11T03:21:08;26.00;42.60
7900;DHT22;3995;50.856;4.404;2022-08-11T03:23:45;26.00;42.70
7900;DHT22;3995;50.856;4.404;2022-08-11T03:26:22;26.00;42.80
7900;DHT22;3995;50.856;4.404;2022-08-11T03:29:00;26.00;42.90
7900;DHT22;3995;50.856;4.404;2022-08-11T03:31:36;26.00;43.00
7900;DHT22;3995;50.856;4.404;2022-08-11T03:34:22;25.90;42.90
7900;DHT22;3995;50.856;4.404;2022-08-11T03:37:24;25.90;43.00
7900;DHT22;3995;50.856;4.404;2022-08-11T03:40:19;26.00;43.10
7900;DHT22;3995;50.856;4.404;2022-08-11T03:43:10;25.80;43.10
7900;DHT22;3995;50.856;4.404;2022-08-11T03:45:51;25.80;43.10
7900;DHT22;3995;50.856;4.404;2022-08-11T03:48:31;25.80;43.00
7900;DHT22;3995;50.856;4.404;2022-08-11T03:51:12;25.80;43.10
7900;DHT22;3995;50.856;4.404;2022-08-11T04:00:02;25.80;43.20
7900;DHT22;3995;50.856;4.404;2022-08-11T04:06:02;25.70;43.20
7900;DHT22;3995;50.856;4.404;2022-08-11T04:09:15;25.70;43.40
7900;DHT22;3995;50.856;4.404;2022-08-11T04:12:11;25.70;43.40
7900;DHT22;3995;50.856;4.404;2022-08-11T04:14:56;25.60;43.50
7900;DHT22;3995;50.856;4.404;2022-08-11T04:18:04;25.60;43.50
7900;DHT22;3995;50.856;4.404;2022-08-11T04:21:14;25.70;43.50
7900;DHT22;3995;50.856;4.404;2022-08-11T04:27:22;25.60;43.40
7900;DHT22;3995;50.856;4.404;2022-08-11T04:30:06;25.60;43.40
7900;DHT22;3995;50.856;4.404;2022-08-11T04:33:18;25.60;43.40
7900;DHT22;3995;50.856;4.404;2022-08-11T04:36:04;25.60;43.20
7900;DHT22;3995;50.856;4.404;2022-08-11T04:39:03;25.50;43.30
7900;DHT22;3995;50.856;4.404;2022-08-11T04:42:18;25.60;43.40
7900;DHT22;3995;50.856;4.404;2022-08-11T04:45:33;25.60;43.50
7900;DHT22;3995;50.856;4.404;2022-08-11T04:48:22;25.50;43.40
7900;DHT22;3995;50.856;4.404;2022-08-11T04:51:31;25.50;43.40
7900;DHT22;3995;50.856;4.404;2022-08-11T04:54:30;25.50;43.40
7900;DHT22;3995;50.856;4.404;2022-08-11T04:57:35;25.50;43.50
7900;DHT22;3995;50.856;4.404;2022-08-11T05:00:29;25.50;43.50
7900;DHT22;3995;50.856;4.404;2022-08-11T05:04:03;25.50;43.60
7900;DHT22;3995;50.856;4.404;2022-08-11T05:10:09;25.40;43.70
7900;DHT22;3995;50.856;4.404;2022-08-11T05:12:45;25.40;43.70
7900;DHT22;3995;50.856;4.404;2022-08-11T05:15:19;25.40;43.70
7900;DHT22;3995;50.856;4.404;2022-08-11T05:18:11;25.40;43.60
7900;DHT22;3995;50.856;4.404;2022-08-11T05:21:04;25.40;43.50
7900;DHT22;3995;50.856;4.404;2022-08-11T05:23:55;25.40;43.40
7900;DHT22;3995;50.856;4.404;2022-08-11T05:26:46;25.40;43.50
7900;DHT22;3995;50.856;4.404;2022-08-11T05:29:39;25.40;43.50
7900;DHT22;3995;50.856;4.404;2022-08-11T05:32:29;25.40;43.40
7900;DHT22;3995;50.856;4.404;2022-08-11T05:35:16;25.40;43.50
7900;DHT22;3995;50.856;4.404;2022-08-11T05:37:50;25.40;43.60
7900;DHT22;3995;50.856;4.404;2022-08-11T05:40:36;25.40;43.50
7900;DHT22;3995;50.856;4.404;2022-08-11T05:43:22;25.40;43.50
7900;DHT22;3995;50.856;4.404;2022-08-11T05:46:07;25.40;43.40
7900;DHT22;3995;50.856;4.404;2022-08-11T05:48:52;25.40;43.60
7900;DHT22;3995;50.856;4.404;2022-08-11T05:51:39;25.40;43.50
7900;DHT22;3995;50.856;4.404;2022-08-11T05:54:25;25.40;43.50
7900;DHT22;3995;50.856;4.404;2022-08-11T05:57:17;25.40;43.60
7900;DHT22;3995;50.856;4.404;2022-08-11T05:59:48;25.40;43.50
7900;DHT22;3995;50.856;4.404;2022-08-11T06:02:16;25.40;43.60
7900;DHT22;3995;50.856;4.404;2022-08-11T06:04:44;25.40;43.70
7900;DHT22;3995;50.856;4.404;2022-08-11T06:07:12;25.50;43.60
7900;DHT22;3995;50.856;4.404;2022-08-11T06:09:47;25.50;43.70
7900;DHT22;3995;50.856;4.404;2022-08-11T06:12:17;25.50;43.60
7900;DHT22;3995;50.856;4.404;2022-08-11T06:14:47;25.50;43.60
7900;DHT22;3995;50.856;4.404;2022-08-11T06:17:21;25.50;43.50
7900;DHT22;3995;50.856;4.404;2022-08-11T06:19:49;25.60;43.60
7900;DHT22;3995;50.856;4.404;2022-08-11T06:22:22;25.50;43.50
7900;DHT22;3995;50.856;4.404;2022-08-11T06:24:54;25.50;43.60
7900;DHT22;3995;50.856;4.404;2022-08-11T06:27:23;25.60;43.70
7900;DHT22;3995;50.856;4.404;2022-08-11T06:29:53;25.60;43.80
7900;DHT22;3995;50.856;4.404;2022-08-11T06:32:23;25.60;43.80
7900;DHT22;3995;50.856;4.404;2022-08-11T06:35:09;25.60;43.80
7900;DHT22;3995;50.856;4.404;2022-08-11T06:37:46;25.70;43.90
7900;DHT22;3995;50.856;4.404;2022-08-11T06:40:30;25.60;44.00
7900;DHT22;3995;50.856;4.404;2022-08-11T06:43:06;25.70;43.90
7900;DHT22;3995;50.856;4.404;2022-08-11T06:45:41;25.70;43.70
7900;DHT22;3995;50.856;4.404;2022-08-11T06:48:15;25.70;43.60
7900;DHT22;3995;50.856;4.404;2022-08-11T06:50:48;25.70;43.60
7900;DHT22;3995;50.856;4.404;2022-08-11T06:53:33;25.70;43.40
7900;DHT22;3995;50.856;4.404;2022-08-11T06:56:01;25.70;43.50
7900;DHT22;3995;50.856;4.404;2022-08-11T06:58:48;25.70;43.30
7900;DHT22;3995;50.856;4.404;2022-08-11T07:01:41;25.80;43.30
7900;DHT22;3995;50.856;4.404;2022-08-11T07:04:20;25.80;43.30
7900;DHT22;3995;50.856;4.404;2022-08-11T07:06:57;25.80;43.50
7900;DHT22;3995;50.856;4.404;2022-08-11T07:10:19;25.80;44.10
7900;DHT22;3995;50.856;4.404;2022-08-11T07:13:19;25.90;43.30
7900;DHT22;3995;50.856;4.404;2022-08-11T07:16:05;25.80;43.20
7900;DHT22;3995;50.856;4.404;2022-08-11T07:18:35;25.80;43.30
7900;DHT22;3995;50.856;4.404;2022-08-11T07:21:23;25.90;43.00
7900;DHT22;3995;50.856;4.404;2022-08-11T07:24:14;25.90;43.20
7900;DHT22;3995;50.856;4.404;2022-08-11T07:27:00;25.90;43.10
7900;DHT22;3995;50.856;4.404;2022-08-11T07:29:46;25.90;42.70
7900;DHT22;3995;50.856;4.404;2022-08-11T07:32:21;25.90;42.70
7900;DHT22;3995;50.856;4.404;2022-08-11T07:35:01;26.00;42.80
7900;DHT22;3995;50.856;4.404;2022-08-11T07:37:30;26.00;42.40
7900;DHT22;3995;50.856;4.404;2022-08-11T07:39:59;26.00;42.40
7900;DHT22;3995;50.856;4.404;2022-08-11T07:42:31;26.00;42.40
7900;DHT22;3995;50.856;4.404;2022-08-11T07:45:03;26.00;42.20
7900;DHT22;3995;50.856;4.404;2022-08-11T07:47:48;26.00;42.10
7900;DHT22;3995;50.856;4.404;2022-08-11T07:50:39;26.00;42.00
7900;DHT22;3995;50.856;4.404;2022-08-11T07:53:24;26.10;42.10
7900;DHT22;3995;50.856;4.404;2022-08-11T07:55:53;26.00;41.80
7900;DHT22;3995;50.856;4.404;2022-08-11T07:58:22;26.10;40.90
7900;DHT22;3995;50.856;4.404;2022-08-11T08:01:08;26.10;40.90
7900;DHT22;3995;50.856;4.404;2022-08-11T08:03:54;26.10;41.00
7900;DHT22;3995;50.856;4.404;2022-08-11T08:06:40;26.10;41.20
7900;DHT22;3995;50.856;4.404;2022-08-11T08:09:24;26.10;41.00
7900;DHT22;3995;50.856;4.404;2022-08-11T08:12:09;26.10;41.20
7900;DHT22;3995;50.856;4.404;2022-08-11T08:14:57;26.10;41.00
7900;DHT22;3995;50.856;4.404;2022-08-11T08:17:43;26.20;41.20
7900;DHT22;3995;50.856;4.404;2022-08-11T08:20:25;26.20;41.10
7900;DHT22;3995;50.856;4.404;2022-08-11T08:22:55;26.20;41.40
7900;DHT22;3995;50.856;4.404;2022-08-11T08:25:23;26.20;41.10
7900;DHT22;3995;50.856;4.404;2022-08-11T08:27:52;26.20;41.20
7900;DHT22;3995;50.856;4.404;2022-08-11T08:30:21;26.30;41.60
7900;DHT22;3995;50.856;4.404;2022-08-11T08:33:07;26.30;41.70
7900;DHT22;3995;50.856;4.404;2022-08-11T08:35:35;26.30;41.70
7900;DHT22;3995;50.856;4.404;2022-08-11T08:38:04;26.30;41.70
7900;DHT22;3995;50.856;4.404;2022-08-11T08:40:32;26.30;41.30
7900;DHT22;3995;50.856;4.404;2022-08-11T08:43:03;26.30;41.40
7900;DHT22;3995;50.856;4.404;2022-08-11T08:45:34;26.30;41.00
7900;DHT22;3995;50.856;4.404;2022-08-11T08:48:04;26.30;40.90
7900;DHT22;3995;50.856;4.404;2022-08-11T08:50:34;26.40;41.00
7900;DHT22;3995;50.856;4.404;2022-08-11T08:53:24;26.40;41.00
7900;DHT22;3995;50.856;4.404;2022-08-11T08:55:57;26.40;41.20
7900;DHT22;3995;50.856;4.404;2022-08-11T08:58:26;26.40;41.50
7900;DHT22;3995;50.856;4.404;2022-08-11T09:00:54;26.40;41.20
7900;DHT22;3995;50.856;4.404;2022-08-11T09:03:22;26.40;41.20
7900;DHT22;3995;50.856;4.404;2022-08-11T09:05:53;26.40;41.20
7900;DHT22;3995;50.856;4.404;2022-08-11T09:08:23;26.40;41.20
7900;DHT22;3995;50.856;4.404;2022-08-11T09:10:55;26.40;41.20
7900;DHT22;3995;50.856;4.404;2022-08-11T09:13:44;26.40;41.10
7900;DHT22;3995;50.856;4.404;2022-08-11T09:16:12;26.40;40.30
7900;DHT22;3995;50.856;4.404;2022-08-11T09:18:41;26.40;40.40
7900;DHT22;3995;50.856;4.404;2022-08-11T09:21:11;26.50;40.50
7900;DHT22;3995;50.856;4.404;2022-08-11T09:23:45;26.50;41.20
7900;DHT22;3995;50.856;4.404;2022-08-11T09:26:31;26.60;40.80
7900;DHT22;3995;50.856;4.404;2022-08-11T09:29:16;26.50;40.90
7900;DHT22;3995;50.856;4.404;2022-08-11T09:31:43;26.50;41.10
7900;DHT22;3995;50.856;4.404;2022-08-11T09:34:13;26.60;40.90
7900;DHT22;3995;50.856;4.404;2022-08-11T09:36:43;26.60;40.50
7900;DHT22;3995;50.856;4.404;2022-08-11T09:39:30;26.60;40.80
7900;DHT22;3995;50.856;4.404;2022-08-11T09:42:15;26.60;40.40
7900;DHT22;3995;50.856;4.404;2022-08-11T09:44:47;26.60;40.30
7900;DHT22;3995;50.856;4.404;2022-08-11T09:47:18;26.70;39.80
7900;DHT22;3995;50.856;4.404;2022-08-11T09:49:48;26.80;39.80
7900;DHT22;3995;50.856;4.404;2022-08-11T09:52:18;26.80;40.30
7900;DHT22;3995;50.856;4.404;2022-08-11T09:54:48;26.80;39.60
7900;DHT22;3995;50.856;4.404;2022-08-11T09:57:18;26.80;38.60
7900;DHT22;3995;50.856;4.404;2022-08-11T10:00:05;26.90;38.30
7900;DHT22;3995;50.856;4.404;2022-08-11T10:02:33;26.90;38.30
7900;DHT22;3995;50.856;4.404;2022-08-11T10:05:02;26.90;37.90
7900;DHT22;3995;50.856;4.404;2022-08-11T10:07:44;27.00;37.70
7900;DHT22;3995;50.856;4.404;2022-08-11T10:10:18;27.00;37.80
7900;DHT22;3995;50.856;4.404;2022-08-11T10:12:49;27.00;38.20
7900;DHT22;3995;50.856;4.404;2022-08-11T10:15:18;27.00;39.10
7900;DHT22;3995;50.856;4.404;2022-08-11T10:18:03;27.10;39.40
7900;DHT22;3995;50.856;4.404;2022-08-11T10:20:49;27.10;39.40
7900;DHT22;3995;50.856;4.404;2022-08-11T10:23:19;27.10;39.00
7900;DHT22;3995;50.856;4.404;2022-08-11T10:26:06;27.10;39.20
7900;DHT22;3995;50.856;4.404;2022-08-11T10:28:52;27.10;39.30
7900;DHT22;3995;50.856;4.404;2022-08-11T10:31:20;27.10;39.70
7900;DHT22;3995;50.856;4.404;2022-08-11T10:34:05;27.10;40.00
7900;DHT22;3995;50.856;4.404;2022-08-11T10:36:35;27.10;40.30
7900;DHT22;3995;50.856;4.404;2022-08-11T10:39:09;27.10;39.80
7900;DHT22;3995;50.856;4.404;2022-08-11T10:41:40;27.10;39.40
7900;DHT22;3995;50.856;4.404;2022-08-11T10:44:25;27.10;40.10
7900;DHT22;3995;50.856;4.404;2022-08-11T10:46:53;27.10;39.80
7900;DHT22;3995;50.856;4.404;2022-08-11T10:49:38;27.10;39.70
7900;DHT22;3995;50.856;4.404;2022-08-11T10:52:06;27.10;40.00
7900;DHT22;3995;50.856;4.404;2022-08-11T10:54:51;27.20;39.50
7900;DHT22;3995;50.856;4.404;2022-08-11T10:57:37;27.20;40.00
7900;DHT22;3995;50.856;4.404;2022-08-11T11:00:22;27.20;40.10
7900;DHT22;3995;50.856;4.404;2022-08-11T11:02:50;27.30;39.70
7900;DHT22;3995;50.856;4.404;2022-08-11T11:05:22;27.30;39.70
7900;DHT22;3995;50.856;4.404;2022-08-11T11:07:55;27.40;40.10
7900;DHT22;3995;50.856;4.404;2022-08-11T11:10:25;27.40;39.90
7900;DHT22;3995;50.856;4.404;2022-08-11T11:12:56;27.40;39.80
7900;DHT22;3995;50.856;4.404;2022-08-11T11:15:43;27.40;39.30
7900;DHT22;3995;50.856;4.404;2022-08-11T11:18:31;27.50;40.20
7900;DHT22;3995;50.856;4.404;2022-08-11T11:21:05;27.50;40.00
7900;DHT22;3995;50.856;4.404;2022-08-11T11:23:39;27.60;40.20
7900;DHT22;3995;50.856;4.404;2022-08-11T11:29:27;27.70;39.20
7900;DHT22;3995;50.856;4.404;2022-08-11T11:32:14;27.70;40.80
7900;DHT22;3995;50.856;4.404;2022-08-11T11:34:57;27.70;41.50
7900;DHT22;3995;50.856;4.404;2022-08-11T11:37:29;27.70;38.10
7900;DHT22;3995;50.856;4.404;2022-08-11T11:39:58;27.70;40.20
7900;DHT22;3995;50.856;4.404;2022-08-11T11:42:27;27.80;40.70
7900;DHT22;3995;50.856;4.404;2022-08-11T11:44:57;27.90;38.90
7900;DHT22;3995;50.856;4.404;2022-08-11T11:47:25;28.00;39.90
7900;DHT22;3995;50.856;4.404;2022-08-11T11:49:53;28.00;40.00
7900;DHT22;3995;50.856;4.404;2022-08-11T11:52:21;28.10;40.80
7900;DHT22;3995;50.856;4.404;2022-08-11T11:54:51;28.10;41.10
7900;DHT22;3995;50.856;4.404;2022-08-11T11:57:22;28.20;41.30
7900;DHT22;3995;50.856;4.404;2022-08-11T12:00:09;28.30;41.60
7900;DHT22;3995;50.856;4.404;2022-08-11T12:02:55;28.30;41.40
7900;DHT22;3995;50.856;4.404;2022-08-11T12:05:24;28.40;42.40
7900;DHT22;3995;50.856;4.404;2022-08-11T12:07:55;28.40;42.00
7900;DHT22;3995;50.856;4.404;2022-08-11T12:10:44;28.50;41.10
7900;DHT22;3995;50.856;4.404;2022-08-11T12:13:12;28.80;40.00
7900;DHT22;3995;50.856;4.404;2022-08-11T12:16:00;29.10;40.80
7900;DHT22;3995;50.856;4.404;2022-08-11T12:18:30;29.60;37.60
7900;DHT22;3995;50.856;4.404;2022-08-11T12:20:59;30.10;39.20
7900;DHT22;3995;50.856;4.404;2022-08-11T12:23:28;30.60;38.90
7900;DHT22;3995;50.856;4.404;2022-08-11T12:26:27;31.00;38.80
7900;DHT22;3995;50.856;4.404;2022-08-11T12:29:14;31.60;37.80
7900;DHT22;3995;50.856;4.404;2022-08-11T12:31:43;32.00;37.90
7900;DHT22;3995;50.856;4.404;2022-08-11T12:34:11;32.10;37.90
7900;DHT22;3995;50.856;4.404;2022-08-11T12:36:41;32.20;38.00
7900;DHT22;3995;50.856;4.404;2022-08-11T12:39:12;32.40;36.90
7900;DHT22;3995;50.856;4.404;2022-08-11T12:41:42;32.50;37.30
7900;DHT22;3995;50.856;4.404;2022-08-11T12:44:27;32.60;37.00
7900;DHT22;3995;50.856;4.404;2022-08-11T12:47:17;32.60;37.10
7900;DHT22;3995;50.856;4.404;2022-08-11T12:49:47;32.60;37.00
7900;DHT22;3995;50.856;4.404;2022-08-11T12:52:36;32.70;36.30
7900;DHT22;3995;50.856;4.404;2022-08-11T12:55:09;32.70;35.20
7900;DHT22;3995;50.856;4.404;2022-08-11T12:57:40;32.90;35.30
7900;DHT22;3995;50.856;4.404;2022-08-11T13:00:26;33.00;36.00
7900;DHT22;3995;50.856;4.404;2022-08-11T13:03:13;33.00;35.90
7900;DHT22;3995;50.856;4.404;2022-08-11T13:06:00;33.00;35.90
7900;DHT22;3995;50.856;4.404;2022-08-11T13:08:32;32.90;35.20
7900;DHT22;3995;50.856;4.404;2022-08-11T13:11:00;32.90;35.30
7900;DHT22;3995;50.856;4.404;2022-08-11T13:13:47;32.80;35.50
7900;DHT22;3995;50.856;4.404;2022-08-11T13:16:15;32.60;35.60
7900;DHT22;3995;50.856;4.404;2022-08-11T13:18:44;32.50;35.50
7900;DHT22;3995;50.856;4.404;2022-08-11T13:21:13;32.30;34.80
7900;DHT22;3995;50.856;4.404;2022-08-11T13:23:41;32.10;32.70
7900;DHT22;3995;50.856;4.404;2022-08-11T13:26:09;32.00;33.20
7900;DHT22;3995;50.856;4.404;2022-08-11T13:28:38;31.80;34.90
7900;DHT22;3995;50.856;4.404;2022-08-11T13:31:05;31.60;35.20
7900;DHT22;3995;50.856;4.404;2022-08-11T13:33:41;31.50;35.40
7900;DHT22;3995;50.856;4.404;2022-08-11T13:36:11;31.30;35.90
7900;DHT22;3995;50.856;4.404;2022-08-11T13:38:41;31.20;35.70
7900;DHT22;3995;50.856;4.404;2022-08-11T13:41:09;31.00;35.40
7900;DHT22;3995;50.856;4.404;2022-08-11T13:43:50;30.90;35.80
7900;DHT22;3995;50.856;4.404;2022-08-11T13:46:19;30.80;36.00
7900;DHT22;3995;50.856;4.404;2022-08-11T13:48:49;30.70;36.70
7900;DHT22;3995;50.856;4.404;2022-08-11T13:51:20;30.60;37.20
7900;DHT22;3995;50.856;4.404;2022-08-11T13:53:59;30.50;35.90
7900;DHT22;3995;50.856;4.404;2022-08-11T13:56:27;30.40;35.40
7900;DHT22;3995;50.856;4.404;2022-08-11T13:58:55;30.40;36.80
7900;DHT22;3995;50.856;4.404;2022-08-11T14:01:27;30.30;35.80
7900;DHT22;3995;50.856;4.404;2022-08-11T14:04:00;30.30;37.00
7900;DHT22;3995;50.856;4.404;2022-08-11T14:06:30;30.30;36.30
7900;DHT22;3995;50.856;4.404;2022-08-11T14:08:59;30.20;36.90
7900;DHT22;3995;50.856;4.404;2022-08-11T14:11:28;30.20;37.20
7900;DHT22;3995;50.856;4.404;2022-08-11T14:14:20;30.20;36.10
7900;DHT22;3995;50.856;4.404;2022-08-11T14:16:49;30.10;37.10
7900;DHT22;3995;50.856;4.404;2022-08-11T14:19:23;30.00;34.50
7900;DHT22;3995;50.856;4.404;2022-08-11T14:21:52;30.10;35.30
7900;DHT22;3995;50.856;4.404;2022-08-11T14:24:38;30.00;36.90
7900;DHT22;3995;50.856;4.404;2022-08-11T14:27:07;30.00;34.10
7900;DHT22;3995;50.856;4.404;2022-08-11T14:29:38;30.00;36.00
7900;DHT22;3995;50.856;4.404;2022-08-11T14:32:09;30.00;37.00
7900;DHT22;3995;50.856;4.404;2022-08-11T14:34:41;29.90;36.40
7900;DHT22;3995;50.856;4.404;2022-08-11T14:37:11;29.90;36.30
7900;DHT22;3995;50.856;4.404;2022-08-11T14:39:43;29.90;37.30
7900;DHT22;3995;50.856;4.404;2022-08-11T14:42:13;29.90;38.50
7900;DHT22;3995;50.856;4.404;2022-08-11T14:45:00;29.80;35.40
7900;DHT22;3995;50.856;4.404;2022-08-11T14:47:48;29.80;36.60
7900;DHT22;3995;50.856;4.404;2022-08-11T14:50:18;29.80;36.40
7900;DHT22;3995;50.856;4.404;2022-08-11T14:52:51;29.80;35.90
7900;DHT22;3995;50.856;4.404;2022-08-11T14:55:20;29.80;36.10
7900;DHT22;3995;50.856;4.404;2022-08-11T14:58:07;29.70;35.00
7900;DHT22;3995;50.856;4.404;2022-08-11T15:00:36;29.70;35.50
7900;DHT22;3995;50.856;4.404;2022-08-11T15:03:05;29.70;36.10
7900;DHT22;3995;50.856;4.404;2022-08-11T15:05:35;29.70;34.70
7900;DHT22;3995;50.856;4.404;2022-08-11T15:08:05;29.70;35.70
7900;DHT22;3995;50.856;4.404;2022-08-11T15:10:33;29.80;35.50
7900;DHT22;3995;50.856;4.404;2022-08-11T15:13:01;29.70;36.10
7900;DHT22;3995;50.856;4.404;2022-08-11T15:15:30;29.70;36.80
7900;DHT22;3995;50.856;4.404;2022-08-11T15:18:17;29.80;35.90
7900;DHT22;3995;50.856;4.404;2022-08-11T15:20:45;29.80;36.00
7900;DHT22;3995;50.856;4.404;2022-08-11T15:23:31;29.80;35.80
7900;DHT22;3995;50.856;4.404;2022-08-11T15:26:18;29.80;35.00
7900;DHT22;3995;50.856;4.404;2022-08-11T15:29:08;29.70;34.20
7900;DHT22;3995;50.856;4.404;2022-08-11T15:31:55;29.70;33.60
7900;DHT22;3995;50.856;4.404;2022-08-11T15:34:40;29.80;34.30
7900;DHT22;3995;50.856;4.404;2022-08-11T15:37:27;29.80;33.80
7900;DHT22;3995;50.856;4.404;2022-08-11T15:40:03;29.90;33.20
7900;DHT22;3995;50.856;4.404;2022-08-11T15:42:56;29.90;34.00
7900;DHT22;3995;50.856;4.404;2022-08-11T15:45:52;29.90;33.80
7900;DHT22;3995;50.856;4.404;2022-08-11T15:48:28;29.80;35.60
7900;DHT22;3995;50.856;4.404;2022-08-11T15:51:03;29.80;35.60
7900;DHT22;3995;50.856;4.404;2022-08-11T15:53:39;29.80;36.80
7900;DHT22;3995;50.856;4.404;2022-08-11T15:56:09;29.80;36.10
7900;DHT22;3995;50.856;4.404;2022-08-11T15:58:39;29.70;36.40
7900;DHT22;3995;50.856;4.404;2022-08-11T16:01:26;29.70;35.60
7900;DHT22;3995;50.856;4.404;2022-08-11T16:04:15;29.70;36.10
7900;DHT22;3995;50.856;4.404;2022-08-11T16:06:48;29.70;35.20
7900;DHT22;3995;50.856;4.404;2022-08-11T16:09:22;29.70;36.10
7900;DHT22;3995;50.856;4.404;2022-08-11T16:11:54;29.70;34.20
7900;DHT22;3995;50.856;4.404;2022-08-11T16:14:23;29.70;36.70
7900;DHT22;3995;50.856;4.404;2022-08-11T16:17:10;29.70;35.50
7900;DHT22;3995;50.856;4.404;2022-08-11T16:19:40;29.70;34.60
7900;DHT22;3995;50.856;4.404;2022-08-11T16:22:09;29.70;34.40
7900;DHT22;3995;50.856;4.404;2022-08-11T16:24:40;29.70;32.80
7900;DHT22;3995;50.856;4.404;2022-08-11T16:27:12;29.80;33.60
7900;DHT22;3995;50.856;4.404;2022-08-11T16:29:42;29.80;34.80
7900;DHT22;3995;50.856;4.404;2022-08-11T16:32:12;29.80;33.60
7900;DHT22;3995;50.856;4.404;2022-08-11T16:34:46;29.80;34.60
7900;DHT22;3995;50.856;4.404;2022-08-11T16:37:33;29.80;35.10
7900;DHT22;3995;50.856;4.404;2022-08-11T16:40:20;29.80;33.90
7900;DHT22;3995;50.856;4.404;2022-08-11T16:42:50;29.70;34.30
7900;DHT22;3995;50.856;4.404;2022-08-11T16:45:37;29.70;33.80
7900;DHT22;3995;50.856;4.404;2022-08-11T16:48:23;29.70;33.00
7900;DHT22;3995;50.856;4.404;2022-08-11T16:50:53;29.70;31.30
7900;DHT22;3995;50.856;4.404;2022-08-11T16:53:20;29.70;30.60
7900;DHT22;3995;50.856;4.404;2022-08-11T16:55:48;29.80;30.60
7900;DHT22;3995;50.856;4.404;2022-08-11T16:58:20;29.80;31.80
7900;DHT22;3995;50.856;4.404;2022-08-11T17:01:08;29.80;31.70
7900;DHT22;3995;50.856;4.404;2022-08-11T17:03:44;29.80;32.20
7900;DHT22;3995;50.856;4.404;2022-08-11T17:06:29;29.90;30.80
7900;DHT22;3995;50.856;4.404;2022-08-11T17:09:16;29.90;32.00
7900;DHT22;3995;50.856;4.404;2022-08-11T17:12:05;29.80;32.40
7900;DHT22;3995;50.856;4.404;2022-08-11T17:14:52;29.80;31.40
7900;DHT22;3995;50.856;4.404;2022-08-11T17:17:26;29.80;32.90
7900;DHT22;3995;50.856;4.404;2022-08-11T17:19:57;29.80;33.30
7900;DHT22;3995;50.856;4.404;2022-08-11T17:22:27;29.80;33.70
7900;DHT22;3995;50.856;4.404;2022-08-11T17:25:15;29.80;31.70
7900;DHT22;3995;50.856;4.404;2022-08-11T17:27:43;29.80;30.90
7900;DHT22;3995;50.856;4.404;2022-08-11T17:30:14;29.80;31.10
7900;DHT22;3995;50.856;4.404;2022-08-11T17:32:48;29.80;30.50
7900;DHT22;3995;50.856;4.404;2022-08-11T17:35:35;29.80;30.90
7900;DHT22;3995;50.856;4.404;2022-08-11T17:38:05;29.90;30.70
7900;DHT22;3995;50.856;4.404;2022-08-11T17:40:34;29.80;30.10
7900;DHT22;3995;50.856;4.404;2022-08-11T17:43:05;29.90;30.00
7900;DHT22;3995;50.856;4.404;2022-08-11T17:46:07;29.90;30.20
7900;DHT22;3995;50.856;4.404;2022-08-11T17:48:51;29.90;30.20
7900;DHT22;3995;50.856;4.404;2022-08-11T17:51:20;29.90;31.20
7900;DHT22;3995;50.856;4.404;2022-08-11T17:54:01;29.90;30.20